Time;durP1;ratioP1;P1;durP2;ratioP2;P2;SDS_P1;SDS_P2;PMS_P1;PMS_P2;Temp;Humidity;BMP_temperature;BMP_pressure;BME280_temperature;BME280_humidity;BME280_pressure;Samples;Min_cycle;Max_cycle;Signal;HPM_P1;HPM_P2
2021/03/06 00:00:32;;;;;;;14.05;7.97;;;;;;;;;;6132498;28;20041;-85
2021/03/06 00:03:33;;;;;;;10.70;7.20;;;3.40;96.10;;;;;;6144644;28;20105;-84
2021/03/06 00:06:34;;;;;;;10.82;7.78;;;;;;;;;;6125881;28;20034;-83
2021/03/06 00:09:36;;;;;;;11.75;8.32;;;3.40;96.90;;;;;;6158334;28;20030;-84
2021/03/06 00:12:37;;;;;;;10.55;7.88;;;;;;;;;;6125189;28;20539;-84
2021/03/06 00:15:38;;;;;;;10.23;7.57;;;3.00;96.00;;;;;;6158834;28;20513;-85
2021/03/06 00:18:39;;;;;;;11.32;7.78;;;;;;;;;;6142259;28;20076;-84
2021/03/06 00:21:39;;;;;;;9.63;6.97;;;3.10;96.00;;;;;;6159355;28;20057;-82
2021/03/06 00:24:40;;;;;;;12.25;7.72;;;;;;;;;;6144837;28;20023;-84
2021/03/06 00:27:41;;;;;;;10.02;7.72;;;;;;;;;;6163271;28;20030;-83
2021/03/06 00:30:42;;;;;;;11.50;7.97;;;3.40;97.00;;;;;;6138225;28;20117;-85
2021/03/06 00:33:43;;;;;;;11.82;8.38;;;;;;;;;;6122128;28;20026;-84
2021/03/06 00:36:44;;;;;;;12.15;8.50;;;3.00;91.10;;;;;;6139537;28;20445;-83
2021/03/06 00:39:45;;;;;;;11.70;7.75;;;;;;;;;;6138270;28;20031;-83
2021/03/06 00:42:45;;;;;;;11.27;7.93;;;3.00;95.60;;;;;;6157791;28;20033;-84
2021/03/06 00:45:46;;;;;;;13.52;8.63;;;;;;;;;;6140061;28;20031;-85
2021/03/06 00:48:47;;;;;;;14.98;7.70;;;2.80;96.60;;;;;;6137482;28;20591;-84
2021/03/06 00:51:48;;;;;;;11.82;8.63;;;;;;;;;;6129316;28;20027;-84
2021/03/06 00:54:49;;;;;;;12.10;7.82;;;;;;;;;;6145535;28;20030;-83
2021/03/06 00:57:50;;;;;;;14.43;9.43;;;3.10;96.80;;;;;;6144914;28;20478;-84
2021/03/06 01:00:50;;;;;;;14.45;9.52;;;3.30;90.00;;;;;;6126569;28;20034;-82
2021/03/06 01:03:51;;;;;;;12.90;8.82;;;3.10;96.60;;;;;;6142008;28;20396;-83
2021/03/06 01:06:52;;;;;;;13.02;8.35;;;;;;;;;;6142526;28;20023;-83
2021/03/06 01:09:53;;;;;;;13.50;8.55;;;2.90;96.40;;;;;;6141598;28;20072;-84
2021/03/06 01:12:54;;;;;;;13.85;9.02;;;;;;;;;;6126096;28;20034;-85
2021/03/06 01:15:54;;;;;;;14.07;9.50;;;2.90;97.40;;;;;;6142454;28;20478;-83
2021/03/06 01:18:55;;;;;;;11.25;8.13;;;;;;;;;;6148065;28;20038;-84
2021/03/06 01:21:56;;;;;;;13.30;8.40;;;2.90;96.70;;;;;;6141759;28;20050;-82
2021/03/06 01:24:57;;;;;;;11.73;8.70;;;;;;;;;;6133130;28;20062;-83
2021/03/06 01:27:58;;;;;;;11.25;8.73;;;;;;;;;;6162592;28;20030;-84
2021/03/06 01:30:58;;;;;;;12.57;8.95;;;2.90;96.90;;;;;;6146248;28;20026;-83
2021/03/06 01:33:59;;;;;;;11.90;8.35;;;;;;;;;;6134657;28;20746;-85
2021/03/06 01:37:00;;;;;;;10.68;8.73;;;2.80;96.30;;;;;;6154748;28;20436;-83
2021/03/06 01:40:01;;;;;;;12.38;8.43;;;;;;;;;;6125280;28;20114;-82
2021/03/06 01:43:06;;;;;;;11.70;8.23;;;2.80;96.30;;;;;;6141838;28;20054;-83
2021/03/06 01:46:06;;;;;;;11.02;8.30;;;2.90;96.30;;;;;;6125661;28;20122;-84
2021/03/06 01:49:07;;;;;;;11.93;8.52;;;;;;;;;;6135811;28;20038;-84
2021/03/06 01:52:08;;;;;;;12.50;8.43;;;;;;;;;;6151156;28;20019;-85
2021/03/06 01:55:09;;;;;;;11.95;8.35;;;2.70;96.60;;;;;;6157545;28;20392;-85
2021/03/06 01:58:10;;;;;;;13.02;8.63;;;2.50;96.70;;;;;;6129007;28;20129;-84
2021/03/06 02:01:11;;;;;;;11.73;8.60;;;2.20;96.80;;;;;;6131683;28;20027;-82
2021/03/06 02:04:12;;;;;;;10.88;8.38;;;2.40;86.30;;;;;;6124694;28;20026;-83
2021/03/06 02:07:13;;;;;;;11.98;8.65;;;2.20;97.00;;;;;;6125037;28;20114;-83
2021/03/06 02:10:15;;;;;;;11.82;8.73;;;2.20;96.80;;;;;;6127579;28;20030;-84
2021/03/06 02:13:24;;;;;;;10.88;8.95;;;2.50;85.60;;;;;;6154437;28;20054;-82
2021/03/06 02:16:25;;;;;;;11.13;7.80;;;;;;;;;;6125259;28;20450;-84
2021/03/06 02:19:56;;;;;;;12.55;8.07;;;2.50;97.10;;;;;;6187185;28;20023;-85
2021/03/06 02:23:18;;;;;;;11.48;9.00;;;2.20;96.90;;;;;;6138271;28;20371;-82
2021/03/06 02:26:50;;;;;;;12.75;8.80;;;2.40;97.00;;;;;;6141084;28;20474;-84
2021/03/06 02:30:02;;;;;;;11.75;8.55;;;1.90;96.80;;;;;;6164221;28;20046;-81
2021/03/06 02:33:02;;;;;;;11.95;8.13;;;2.10;97.40;;;;;;6148142;28;20117;-83
2021/03/06 02:36:07;;;;;;;11.50;8.52;;;2.10;96.70;;;;;;6139445;28;20046;-83
2021/03/06 02:39:12;;;;;;;11.98;8.32;;;2.10;97.40;;;;;;6123986;28;20029;-83
2021/03/06 02:42:16;;;;;;;12.20;8.40;;;2.00;97.60;;;;;;6141399;28;20029;-84
2021/03/06 02:45:17;;;;;;;11.20;8.45;;;1.80;97.30;;;;;;6127037;28;20531;-84
2021/03/06 02:48:18;;;;;;;13.77;8.65;;;;;;;;;;6143428;28;20031;-84
2021/03/06 02:51:19;;;;;;;13.45;9.25;;;2.00;96.80;;;;;;6139692;28;20153;-84
2021/03/06 02:54:20;;;;;;;11.30;8.60;;;1.80;96.60;;;;;;6129103;28;20038;-84
2021/03/06 02:57:31;;;;;;;11.55;8.43;;;1.90;96.80;;;;;;6153294;28;20170;-84
2021/03/06 03:00:45;;;;;;;13.13;8.70;;;1.90;96.60;;;;;;6139345;28;20031;-83
2021/03/06 03:04:03;;;;;;;12.10;8.63;;;2.40;96.90;;;;;;6140254;28;20026;-83
2021/03/06 03:07:17;;;;;;;10.73;7.68;;;1.80;96.70;;;;;;6123925;28;20089;-83
2021/03/06 03:10:19;;;;;;;12.93;8.98;;;1.80;97.00;;;;;;6124098;28;20031;-84
2021/03/06 03:13:35;;;;;;;12.07;8.65;;;1.80;85.80;;;;;;6130139;28;20026;-83
2021/03/06 03:16:44;;;;;;;12.40;8.63;;;0.20;91.10;;;;;;6146142;28;20508;-82
2021/03/06 03:20:01;;;;;;;11.82;8.38;;;1.60;97.20;;;;;;6129436;28;20149;-85
2021/03/06 03:23:14;;;;;;;12.88;9.05;;;1.60;97.00;;;;;;6141704;28;20459;-82
2021/03/06 03:26:14;;;;;;;13.57;8.63;;;1.70;96.60;;;;;;6132388;28;20037;-83
2021/03/06 03:29:15;;;;;;;12.55;8.77;;;1.40;97.20;;;;;;6130681;28;20390;-84
2021/03/06 03:32:16;;;;;;;12.02;8.63;;;;;;;;;;6154324;28;20428;-82
2021/03/06 03:35:19;;;;;;;13.23;9.20;;;1.30;90.80;;;;;;6150191;28;20034;-84
2021/03/06 03:38:19;;;;;;;11.93;8.77;;;1.30;97.80;;;;;;6122444;28;20094;-84
2021/03/06 03:41:20;;;;;;;11.88;8.52;;;1.30;97.80;;;;;;6122896;28;20038;-84
2021/03/06 03:44:21;;;;;;;12.98;8.82;;;;;;;;;;6122299;28;20117;-84
2021/03/06 03:47:21;;;;;;;11.50;8.15;;;1.50;97.70;;;;;;6137935;28;20073;-81
2021/03/06 03:50:22;;;;;;;13.13;8.80;;;;;;;;;;6141643;28;20030;-81
2021/03/06 03:53:23;;;;;;;13.10;9.50;;;1.20;97.40;;;;;;6161137;28;20377;-81
2021/03/06 03:56:26;;;;;;;12.02;8.50;;;1.20;92.20;;;;;;6123875;28;20038;-83
2021/03/06 03:59:27;;;;;;;10.63;8.48;;;1.20;97.40;;;;;;6121783;28;20031;-83
2021/03/06 04:02:28;;;;;;;12.20;9.27;;;1.10;97.50;;;;;;6121966;28;20034;-83
2021/03/06 04:05:29;;;;;;;12.57;9.13;;;-0.90;97.00;;;;;;6156467;28;20038;-85
2021/03/06 04:08:29;;;;;;;11.32;8.55;;;1.10;90.30;;;;;;6141813;28;20088;-84
2021/03/06 04:11:30;;;;;;;12.13;8.50;;;1.60;90.30;;;;;;6160547;28;20477;-83
2021/03/06 04:14:31;;;;;;;11.40;8.20;;;1.00;97.90;;;;;;6160708;28;20161;-82
2021/03/06 04:17:31;;;;;;;11.52;8.15;;;0.70;97.90;;;;;;6160191;28;20141;-82
2021/03/06 04:20:32;;;;;;;10.75;7.90;;;0.70;98.30;;;;;;6160447;28;20428;-82
2021/03/06 04:23:33;;;;;;;13.02;9.30;;;0.40;99.90;;;;;;6143204;28;20035;-83
2021/03/06 04:26:33;;;;;;;11.63;8.40;;;0.40;98.60;;;;;;6160520;28;20461;-81
2021/03/06 04:29:34;;;;;;;11.65;8.32;;;0.60;99.90;;;;;;6144256;28;20031;-82
2021/03/06 04:32:35;;;;;;;14.70;8.20;;;;;;;;;;6133796;28;20374;-84
2021/03/06 04:35:36;;;;;;;12.10;8.55;;;;;;;;;;6160958;28;20030;-83
2021/03/06 04:38:37;;;;;;;11.45;7.78;;;;;;;;;;6160222;28;20034;-84
2021/03/06 04:41:38;;;;;;;11.30;8.27;;;;;;;;;;6163152;28;20031;-83
2021/03/06 04:44:39;;;;;;;12.95;8.30;;;0.40;99.90;;;;;;6153852;28;20022;-82
2021/03/06 04:47:43;;;;;;;12.85;8.93;;;0.40;96.00;;;;;;6121834;28;20062;-83
2021/03/06 04:50:44;;;;;;;14.50;9.43;;;1.20;92.20;;;;;;6126496;28;20037;-82
2021/03/06 04:53:45;;;;;;;12.23;8.48;;;;;;;;;;6161103;28;20528;-83
2021/03/06 04:56:46;;;;;;;13.95;8.20;;;;;;;;;;6137882;28;20027;-82
2021/03/06 04:59:48;;;;;;;11.40;8.65;;;-0.20;99.90;;;;;;6137626;28;20030;-81
2021/03/06 05:02:50;;;;;;;13.10;8.65;;;;;;;;;;6122213;28;20642;-81
2021/03/06 05:05:51;;;;;;;13.13;8.88;;;;;;;;;;6145379;28;20045;-82
2021/03/06 05:08:52;;;;;;;12.20;8.40;;;;;;;;;;6176652;28;20019;-83
2021/03/06 05:11:53;;;;;;;12.40;8.82;;;0.20;99.90;;;;;;6176573;28;20034;-83
2021/03/06 05:14:54;;;;;;;11.55;8.15;;;;;;;;;;6144336;28;20173;-82
2021/03/06 05:17:54;;;;;;;62.42;33.55;;;0.20;96.30;;;;;;6193577;28;20461;-83
2021/03/06 05:20:55;;;;;;;13.30;9.77;;;0.10;97.80;;;;;;6144019;28;20055;-84
2021/03/06 05:23:56;;;;;;;11.75;8.73;;;;;;;;;;6144541;28;20053;-82
2021/03/06 05:27:02;;;;;;;12.25;8.60;;;0.00;91.20;;;;;;6153370;28;20396;-82
2021/03/06 05:30:04;;;;;;;11.25;8.38;;;1.30;92.10;;;;;;6122914;28;20474;-82
2021/03/06 05:33:04;;;;;;;12.35;8.98;;;0.10;97.90;;;;;;6121330;28;20061;-83
2021/03/06 05:36:06;;;;;;;13.98;9.68;;;1.00;93.20;;;;;;6137049;28;20043;-85
2021/03/06 05:39:07;;;;;;;12.05;8.73;;;;;;;;;;6142448;28;20105;-82
2021/03/06 05:42:10;;;;;;;13.23;9.95;;;-0.10;91.10;;;;;;6160441;28;20031;-81
2021/03/06 05:45:11;;;;;;;13.48;9.07;;;;;;;;;;6145023;28;20057;-82
2021/03/06 05:48:12;;;;;;;12.88;8.98;;;-0.30;91.70;;;;;;6173048;28;20052;-82
2021/03/06 05:51:12;;;;;;;13.90;9.32;;;-0.40;93.70;;;;;;6126136;28;20042;-82
2021/03/06 05:54:14;;;;;;;14.20;9.77;;;1.20;94.30;;;;;;6147440;28;20030;-82
2021/03/06 05:57:15;;;;;;;15.02;9.93;;;0.00;94.10;;;;;;6144280;28;20038;-83
2021/03/06 06:00:16;;;;;;;13.20;9.55;;;0.60;94.30;;;;;;6148183;28;20441;-81
2021/03/06 06:03:17;;;;;;;12.43;9.45;;;-0.60;93.90;;;;;;6164170;28;20030;-81
2021/03/06 06:06:18;;;;;;;16.23;11.10;;;-0.10;94.50;;;;;;6147937;28;20388;-82
2021/03/06 06:09:18;;;;;;;12.27;9.27;;;-0.50;94.20;;;;;;6161324;28;20493;-83
2021/03/06 06:12:19;;;;;;;13.68;9.45;;;1.10;94.70;;;;;;6144834;28;20073;-81
2021/03/06 06:15:20;;;;;;;14.88;8.55;;;1.10;94.30;;;;;;6140868;28;20034;-83
2021/03/06 06:18:21;;;;;;;13.50;9.25;;;;;;;;;;6124918;28;20050;-82
2021/03/06 06:21:41;;;;;;;12.63;9.13;;;-0.50;92.10;;;;;;6156504;28;20062;-82
2021/03/06 06:24:48;;;;;;;14.65;9.85;;;-0.60;99.90;;;;;;6130256;28;20045;-84
2021/03/06 06:27:58;;;;;;;14.00;10.35;;;-0.50;93.30;;;;;;6126788;28;20035;-82
2021/03/06 06:31:09;;;;;;;13.40;8.20;;;-0.30;93.70;;;;;;6135066;28;20070;-81
2021/03/06 06:34:13;;;;;;;14.65;9.25;;;1.30;94.10;;;;;;6147604;28;20035;-82
2021/03/06 06:37:14;;;;;;;12.05;8.05;;;;;;;;;;6145106;28;20758;-83
2021/03/06 06:40:22;;;;;;;11.85;8.23;;;0.90;89.50;;;;;;6179100;28;20026;-84
2021/03/06 06:43:24;;;;;;;10.40;8.40;;;1.10;91.40;;;;;;6135493;28;20031;-83
2021/03/06 06:46:28;;;;;;;12.40;8.77;;;1.70;99.20;;;;;;6157687;28;20126;-81
2021/03/06 06:49:29;;;;;;;11.27;8.57;;;;;;;;;;6125365;28;20045;-83
2021/03/06 06:52:44;;;;;;;11.23;8.15;;;1.20;90.00;;;;;;6156657;28;20031;-83
2021/03/06 06:55:45;;;;;;;10.10;7.65;;;;;;;;;;6125197;28;20031;-83
2021/03/06 06:58:46;;;;;;;9.25;7.70;;;;;;;;;;6140162;28;20029;-82
2021/03/06 07:01:46;;;;;;;10.80;8.15;;;3.80;94.70;;;;;;6158196;28;20023;-84
2021/03/06 07:04:55;;;;;;;8.70;7.22;;;4.60;92.60;;;;;;6127936;28;20030;-85
2021/03/06 07:07:56;;;;;;;14.95;12.63;;;5.50;89.80;;;;;;6127847;28;20031;-86
2021/03/06 07:10:57;;;;;;;12.60;9.52;;;6.30;89.70;;;;;;6125096;28;20031;-82
2021/03/06 07:13:59;;;;;;;11.38;7.60;;;;;;;;;;6127518;28;20069;-82
2021/03/06 07:17:00;;;;;;;13.32;9.10;;;7.50;85.00;;;;;;6156095;28;20147;-82
2021/03/06 07:20:01;;;;;;;12.65;8.82;;;8.00;83.20;;;;;;6126892;28;20046;-83
2021/03/06 07:23:22;;;;;;;10.25;7.78;;;8.00;83.10;;;;;;6127791;28;20073;-83
2021/03/06 07:26:23;;;;;;;8.48;6.85;;;;;;;;;;6148643;28;20058;-82
2021/03/06 07:29:24;;;;;;;9.52;8.40;;;;;;;;;;6152756;28;20527;-82
2021/03/06 07:32:30;;;;;;;10.52;8.40;;;9.20;82.00;;;;;;6171947;28;20034;-82
2021/03/06 07:35:38;;;;;;;10.32;8.32;;;9.30;79.10;;;;;;6146953;28;20030;-85
2021/03/06 07:38:38;;;;;;;6.57;5.88;;;9.90;74.50;;;;;;6123658;28;20093;-80
2021/03/06 07:41:40;;;;;;;8.95;8.05;;;9.90;74.90;;;;;;6138303;28;20022;-83
2021/03/06 07:44:41;;;;;;;8.90;7.05;;;10.10;57.10;;;;;;6123101;28;20058;-83
2021/03/06 07:47:42;;;;;;;8.68;6.95;;;10.00;56.30;;;;;;6139541;28;20031;-84
2021/03/06 07:50:48;;;;;;;8.50;6.75;;;10.00;56.90;;;;;;6123284;28;20073;-83
2021/03/06 07:53:48;;;;;;;7.53;6.43;;;11.00;70.80;;;;;;6129039;28;20037;-85
2021/03/06 07:56:49;;;;;;;10.02;6.80;;;;;;;;;;6130554;28;20445;-86
2021/03/06 07:59:53;;;;;;;6.80;6.10;;;11.90;67.60;;;;;;6153692;28;20118;-84
2021/03/06 08:02:54;;;;;;;8.35;7.50;;;12.00;46.80;;;;;;6126272;28;20038;-84
2021/03/06 08:06:04;;;;;;;7.47;6.63;;;12.50;49.20;;;;;;6126716;28;20473;-84
2021/03/06 08:09:06;;;;;;;7.72;6.50;;;13.10;71.20;;;;;;6162397;28;20033;-84
2021/03/06 08:12:07;;;;;;;6.97;6.18;;;12.40;73.90;;;;;;6138414;28;20035;-84
2021/03/06 08:15:28;;;;;;;7.07;6.35;;;12.90;60.70;;;;;;6125292;28;20114;-84
2021/03/06 08:18:32;;;;;;;7.82;6.35;;;12.80;44.20;;;;;;6160010;28;20423;-86
2021/03/06 08:21:36;;;;;;;6.90;6.20;;;12.40;47.10;;;;;;6154951;28;20070;-86
2021/03/06 08:24:37;;;;;;;6.97;6.07;;;12.90;73.80;;;;;;6164370;28;20132;-87
2021/03/06 08:27:38;;;;;;;6.88;5.97;;;;;;;;;;6130956;28;20022;-89
2021/03/06 08:30:38;;;;;;;6.57;5.60;;;13.30;49.70;;;;;;6156830;28;20026;-85
2021/03/06 08:33:39;;;;;;;6.38;5.78;;;;;;;;;;6141916;28;20038;-83
2021/03/06 08:36:40;;;;;;;6.68;5.97;;;12.70;38.40;;;;;;6136180;28;20035;-82
2021/03/06 08:39:50;;;;;;;7.03;6.30;;;12.70;41.90;;;;;;6141823;28;20026;-88
2021/03/06 08:42:53;;;;;;;8.13;6.28;;;12.80;42.10;;;;;;6139912;28;20039;-86
2021/03/06 08:45:53;;;;;;;10.50;9.48;;;13.50;42.20;;;;;;6142371;28;20045;-88
2021/03/06 08:48:54;;;;;;;8.52;6.30;;;13.70;42.80;;;;;;6129178;28;20035;-83
2021/03/06 08:51:55;;;;;;;9.70;6.80;;;14.40;42.70;;;;;;6123228;28;20117;-84
2021/03/06 08:54:56;;;;;;;7.20;6.07;;;;;;;;;;6127492;28;20041;-84
2021/03/06 08:58:07;;;;;;;7.18;6.30;;;14.20;37.40;;;;;;6142110;28;20097;-85
2021/03/06 09:01:07;;;;;;;7.72;6.50;;;13.80;39.10;;;;;;6109850;28;20039;-86
2021/03/06 09:04:08;;;;;;;7.68;6.15;;;13.90;38.80;;;;;;6159945;28;20023;-84
2021/03/06 09:07:23;;;;;;;9.32;5.95;;;14.70;39.80;;;;;;6121274;28;20039;-85
2021/03/06 09:10:35;;;;;;;8.45;7.43;;;15.40;38.50;;;;;;6128261;28;20053;-84
2021/03/06 09:13:36;;;;;;;8.07;6.55;;;15.30;40.70;;;;;;6107642;28;20078;-85
2021/03/06 09:16:39;;;;;;;8.60;7.20;;;15.20;41.30;;;;;;6121195;28;20043;-91
2021/03/06 09:19:40;;;;;;;11.55;7.10;;;15.20;42.10;;;;;;6138413;28;20079;-85
2021/03/06 09:22:41;;;;;;;9.55;6.72;;;15.30;42.40;;;;;;6144481;28;20039;-85
2021/03/06 09:25:42;;;;;;;8.00;7.07;;;15.70;42.00;;;;;;6126383;28;20499;-89
2021/03/06 09:28:43;;;;;;;10.77;7.13;;;15.50;41.90;;;;;;6145545;28;20277;-83
2021/03/06 09:31:49;;;;;;;9.45;7.72;;;15.60;42.10;;;;;;6150255;28;20040;-83
2021/03/06 09:34:49;;;;;;;8.60;7.40;;;15.40;41.80;;;;;;6127147;28;20034;-84
2021/03/06 09:38:08;;;;;;;8.18;7.38;;;16.30;62.30;;;;;;6147324;28;20042;-86
2021/03/06 09:41:09;;;;;;;8.70;7.18;;;16.20;40.80;;;;;;6149932;28;20042;-82
2021/03/06 09:44:09;;;;;;;9.30;7.28;;;15.80;68.40;;;;;;6132698;28;20481;-81
2021/03/06 09:47:10;;;;;;;8.23;7.30;;;15.70;67.80;;;;;;6141595;28;20393;-82
2021/03/06 09:50:14;;;;;;;8.20;7.07;;;15.70;56.50;;;;;;6125623;28;20385;-84
2021/03/06 09:53:22;;;;;;;35.28;9.95;;;16.10;68.50;;;;;;6124656;28;20041;-80
2021/03/06 09:56:23;;;;;;;7.88;6.72;;;16.40;66.60;;;;;;6141394;28;20045;-79
2021/03/06 09:59:25;;;;;;;8.27;7.05;;;16.50;68.90;;;;;;6156582;28;20397;-80
2021/03/06 10:02:26;;;;;;;12.48;7.03;;;;;;;;;;6140893;28;20027;-80
2021/03/06 10:05:27;;;;;;;7.90;7.10;;;16.40;51.70;;;;;;6141641;28;20130;-84
2021/03/06 10:08:28;;;;;;;21.20;7.43;;;16.40;42.10;;;;;;6125346;28;20035;-79
2021/03/06 10:11:33;;;;;;;11.25;7.85;;;16.40;45.00;;;;;;6140019;28;20044;-81
2021/03/06 10:14:34;;;;;;;8.35;7.28;;;17.40;42.40;;;;;;6141139;28;20120;-77
2021/03/06 10:17:35;;;;;;;10.05;6.63;;;17.70;39.90;;;;;;6156058;28;20039;-80
2021/03/06 10:20:35;;;;;;;7.55;6.75;;;17.60;40.30;;;;;;6148077;28;20059;-79
2021/03/06 10:23:36;;;;;;;15.25;12.77;;;17.50;35.20;;;;;;6159498;28;20046;-82
2021/03/06 10:26:36;;;;;;;10.77;9.00;;;17.00;40.10;;;;;;6168945;28;20065;-79
2021/03/06 10:29:37;;;;;;;7.07;6.38;;;16.20;37.50;;;;;;6159200;28;20114;-79
2021/03/06 10:32:51;;;;;;;8.68;7.20;;;15.70;37.60;;;;;;6147790;28;20064;-78
2021/03/06 10:35:52;;;;;;;10.68;8.57;;;15.40;37.00;;;;;;6132773;28;20053;-80
2021/03/06 10:39:16;;;;;;;7.88;6.70;;;14.90;40.10;;;;;;6131650;28;20434;-80
2021/03/06 10:42:16;;;;;;;8.30;6.78;;;14.00;38.40;;;;;;6132164;28;20039;-79
2021/03/06 10:45:28;;;;;;;8.75;7.20;;;13.80;42.60;;;;;;6136108;28;20035;-79
2021/03/06 10:48:30;;;;;;;8.85;7.60;;;13.80;59.50;;;;;;6159749;28;20039;-82
2021/03/06 10:51:57;;;;;;;8.75;7.53;;;13.80;42.40;;;;;;6162049;28;20469;-78
2021/03/06 10:54:58;;;;;;;10.90;8.65;;;13.90;40.00;;;;;;6159216;28;20109;-79
2021/03/06 10:57:59;;;;;;;8.85;7.93;;;14.50;41.30;;;;;;6141493;28;20129;-79
2021/03/06 11:00:59;;;;;;;11.93;9.43;;;13.60;43.70;;;;;;6157155;28;20023;-80
2021/03/06 11:04:00;;;;;;;7.90;7.10;;;14.20;41.30;;;;;;6147628;28;20482;-79
2021/03/06 11:07:06;;;;;;;10.50;8.18;;;13.40;41.50;;;;;;6148119;28;20035;-81
2021/03/06 11:10:06;;;;;;;8.43;7.38;;;13.40;39.80;;;;;;6153822;28;20026;-77
2021/03/06 11:13:07;;;;;;;9.75;7.15;;;12.90;40.80;;;;;;6165961;28;20043;-78
2021/03/06 11:16:08;;;;;;;9.35;7.47;;;13.50;42.30;;;;;;6170082;28;20042;-77
2021/03/06 11:19:09;;;;;;;10.13;7.93;;;13.40;42.50;;;;;;6140391;28;20549;-81
2021/03/06 11:22:10;;;;;;;8.57;7.60;;;12.90;43.60;;;;;;6140383;28;20058;-80
2021/03/06 11:25:12;;;;;;;9.13;7.32;;;13.00;44.20;;;;;;6146045;28;20102;-78
2021/03/06 11:28:13;;;;;;;8.02;7.22;;;13.20;42.30;;;;;;6147063;28;20055;-79
2021/03/06 11:31:14;;;;;;;7.85;7.05;;;13.50;43.00;;;;;;6157359;28;20031;-79
2021/03/06 11:34:14;;;;;;;8.15;6.95;;;13.00;72.80;;;;;;6169633;28;20062;-82
2021/03/06 11:37:15;;;;;;;7.35;6.65;;;13.00;56.30;;;;;;6152111;28;20043;-82
2021/03/06 11:40:17;;;;;;;8.73;7.82;;;12.40;73.00;;;;;;6131315;28;20114;-80
2021/03/06 11:43:18;;;;;;;8.10;7.03;;;13.00;67.50;;;;;;6168624;28;20058;-80
2021/03/06 11:46:19;;;;;;;8.57;6.75;;;12.40;68.70;;;;;;6119455;28;20473;-78
2021/03/06 11:49:20;;;;;;;11.68;7.45;;;;;;;;;;6163503;28;20030;-80
2021/03/06 11:52:21;;;;;;;7.60;6.68;;;11.70;74.30;;;;;;6153830;28;20061;-80
2021/03/06 11:55:22;;;;;;;10.05;7.30;;;;;;;;;;6154319;28;20035;-80
2021/03/06 11:58:23;;;;;;;7.60;6.75;;;;;;;;;;6146548;28;20046;-79
2021/03/06 12:01:23;;;;;;;7.75;6.57;;;11.90;76.40;;;;;;6147711;28;20402;-79
2021/03/06 12:04:24;;;;;;;9.50;6.68;;;12.10;75.00;;;;;;6146154;28;20042;-80
2021/03/06 12:07:25;;;;;;;8.00;6.90;;;;;;;;;;6147972;28;20351;-79
2021/03/06 12:10:28;;;;;;;9.70;7.07;;;12.90;57.60;;;;;;6130233;28;20461;-79
2021/03/06 12:13:31;;;;;;;7.32;6.50;;;;;;;;;;6146428;28;20120;-79
2021/03/06 12:16:32;;;;;;;7.63;6.72;;;;;;;;;;6130056;28;20754;-79
2021/03/06 12:19:33;;;;;;;8.50;7.38;;;11.60;76.00;;;;;;6132794;28;20121;-79
2021/03/06 12:22:34;;;;;;;6.97;6.18;;;11.50;73.20;;;;;;6194359;28;20049;-79
2021/03/06 12:25:36;;;;;;;7.07;6.38;;;;;;;;;;6160591;28;20035;-79
2021/03/06 12:28:37;;;;;;;7.28;5.95;;;;;;;;;;6154019;28;20030;-79
2021/03/06 12:31:38;;;;;;;7.40;5.57;;;;;;;;;;6154320;28;20026;-81
2021/03/06 12:34:39;;;;;;;6.28;5.68;;;11.60;52.50;;;;;;6171523;28;20474;-81
2021/03/06 12:37:40;;;;;;;6.53;5.78;;;;;;;;;;6121038;28;20053;-81
2021/03/06 12:40:50;;;;;;;6.25;5.63;;;11.00;59.20;;;;;;6140489;28;20084;-78
2021/03/06 12:43:51;;;;;;;6.20;5.40;;;;;;;;;;6167353;28;20026;-79
2021/03/06 12:46:51;;;;;;;5.95;5.25;;;11.00;61.40;;;;;;6144177;28;20027;-79
2021/03/06 12:49:52;;;;;;;6.13;5.30;;;11.00;56.80;;;;;;6128515;28;20126;-81
2021/03/06 12:52:53;;;;;;;6.00;5.40;;;11.70;58.70;;;;;;6126124;28;20072;-83
2021/03/06 12:55:53;;;;;;;6.10;5.22;;;11.80;58.40;;;;;;6156385;28;20039;-80
2021/03/06 12:58:54;;;;;;;7.40;5.22;;;11.70;41.80;;;;;;6142132;28;20048;-78
2021/03/06 13:01:55;;;;;;;6.88;5.10;;;11.60;43.50;;;;;;6151527;28;20453;-81
2021/03/06 13:04:55;;;;;;;8.45;6.45;;;11.70;43.20;;;;;;6130638;28;20093;-79
2021/03/06 13:07:56;;;;;;;5.78;5.18;;;11.70;40.80;;;;;;6140913;28;20030;-80
2021/03/06 13:10:56;;;;;;;11.50;6.93;;;12.30;42.10;;;;;;6155203;28;20034;-78
2021/03/06 13:13:57;;;;;;;7.25;5.00;;;;;;;;;;6183384;28;20030;-77
2021/03/06 13:16:58;;;;;;;5.65;4.60;;;12.10;37.40;;;;;;6177289;28;20042;-79
2021/03/06 13:19:59;;;;;;;5.72;4.57;;;11.80;39.40;;;;;;6131926;28;20054;-77
2021/03/06 13:23:00;;;;;;;6.30;4.88;;;11.60;38.60;;;;;;6163009;28;20041;-81
2021/03/06 13:26:00;;;;;;;5.22;4.70;;;11.10;40.20;;;;;;6139491;28;20409;-80
2021/03/06 13:29:01;;;;;;;4.63;4.00;;;10.50;56.70;;;;;;6169648;28;20121;-85
2021/03/06 13:32:02;;;;;;;7.15;4.65;;;10.70;41.30;;;;;;6133848;28;20038;-82
2021/03/06 13:35:04;;;;;;;5.68;4.22;;;10.70;39.70;;;;;;6131323;28;20023;-82
2021/03/06 13:38:05;;;;;;;5.82;4.45;;;10.80;39.60;;;;;;6158268;28;20065;-82
2021/03/06 13:41:06;;;;;;;5.63;4.47;;;11.10;39.80;;;;;;6140806;28;20046;-83
2021/03/06 13:44:06;;;;;;;5.32;4.32;;;11.00;58.80;;;;;;6127440;28;20038;-82
2021/03/06 13:47:07;;;;;;;4.68;4.18;;;10.90;41.40;;;;;;6146086;28;20138;-83
2021/03/06 13:50:09;;;;;;;5.80;4.47;;;10.70;57.60;;;;;;6146987;28;20034;-85
2021/03/06 13:53:10;;;;;;;5.15;4.32;;;11.00;39.30;;;;;;6126546;28;20035;-86
2021/03/06 13:56:11;;;;;;;5.05;4.22;;;10.80;39.70;;;;;;6130458;28;20125;-81
2021/03/06 13:59:11;;;;;;;4.60;4.15;;;10.80;40.60;;;;;;6141518;28;20038;-81
2021/03/06 14:02:12;;;;;;;4.38;3.95;;;10.70;39.20;;;;;;6127671;28;20043;-84
2021/03/06 14:05:13;;;;;;;5.28;4.55;;;;;;;;;;6133476;28;20399;-85
2021/03/06 14:08:14;;;;;;;5.38;4.28;;;10.60;54.70;;;;;;6140034;28;20457;-81
2021/03/06 14:11:14;;;;;;;7.15;5.07;;;10.60;58.70;;;;;;6161068;28;20038;-83
2021/03/06 14:14:15;;;;;;;4.72;4.18;;;10.80;41.80;;;;;;6142528;28;20026;-83
2021/03/06 14:17:16;;;;;;;6.13;4.82;;;11.00;57.40;;;;;;6115577;28;20555;-87
2021/03/06 14:20:17;;;;;;;5.68;4.60;;;10.90;40.80;;;;;;6150539;28;20089;-83
2021/03/06 14:23:17;;;;;;;4.82;4.05;;;10.70;40.30;;;;;;6130371;28;20089;-84
2021/03/06 14:26:21;;;;;;;6.38;4.75;;;11.00;56.40;;;;;;6123944;28;20364;-81
2021/03/06 14:29:22;;;;;;;4.68;4.28;;;11.00;37.20;;;;;;6140474;28;20034;-80
2021/03/06 14:32:23;;;;;;;4.97;4.40;;;;;;;;;;6155927;28;20085;-78
2021/03/06 14:35:24;;;;;;;6.05;4.68;;;10.90;54.30;;;;;;6140390;28;20019;-82
2021/03/06 14:38:25;;;;;;;6.75;4.85;;;11.60;41.00;;;;;;6123586;28;20050;-82
2021/03/06 14:41:25;;;;;;;7.22;6.30;;;10.70;39.80;;;;;;6139613;28;20081;-83
2021/03/06 14:44:26;;;;;;;5.88;4.95;;;;;;;;;;6142488;28;20034;-81
2021/03/06 14:47:27;;;;;;;5.95;4.50;;;10.70;34.30;;;;;;6140762;28;20026;-85
2021/03/06 14:50:28;;;;;;;4.30;3.90;;;;;;;;;;6146720;28;20037;-84
2021/03/06 14:53:28;;;;;;;8.50;4.43;;;10.70;33.90;;;;;;6147638;28;20034;-81
2021/03/06 14:56:29;;;;;;;5.78;4.65;;;;;;;;;;6140422;28;20389;-82
2021/03/06 14:59:30;;;;;;;7.03;5.00;;;10.60;34.90;;;;;;6156287;28;20457;-80
2021/03/06 15:02:31;;;;;;;6.43;4.65;;;10.40;40.20;;;;;;6124438;28;20097;-84
2021/03/06 15:05:32;;;;;;;6.85;4.80;;;;;;;;;;6135034;28;20453;-83
2021/03/06 15:08:33;;;;;;;9.50;6.40;;;10.10;56.80;;;;;;6139857;28;20065;-82
2021/03/06 15:11:33;;;;;;;9.63;6.25;;;10.30;41.00;;;;;;6126857;28;20030;-82
2021/03/06 15:14:34;;;;;;;5.70;4.75;;;10.30;53.80;;;;;;6143060;28;20042;-82
2021/03/06 15:17:35;;;;;;;5.88;5.10;;;10.30;40.70;;;;;;6173601;28;20385;-85
2021/03/06 15:20:36;;;;;;;5.90;4.88;;;;;;;;;;6126070;28;20137;-85
2021/03/06 15:23:37;;;;;;;8.65;4.82;;;10.30;36.80;;;;;;6142615;28;20084;-87
2021/03/06 15:26:37;;;;;;;7.05;5.07;;;10.30;43.00;;;;;;6132341;28;20026;-86
2021/03/06 15:29:38;;;;;;;6.53;5.63;;;10.30;42.80;;;;;;6131048;28;20465;-86
2021/03/06 15:32:39;;;;;;;6.05;4.85;;;10.30;41.80;;;;;;6126160;28;20128;-83
2021/03/06 15:35:39;;;;;;;6.88;5.00;;;10.50;40.80;;;;;;6133941;28;20390;-87
2021/03/06 15:38:40;;;;;;;7.32;5.47;;;;;;;;;;6122722;28;20043;-83
2021/03/06 15:41:41;;;;;;;7.25;5.30;;;10.10;39.10;;;;;;6135110;28;20034;-84
2021/03/06 15:44:41;;;;;;;6.97;5.63;;;10.00;59.10;;;;;;6127760;28;20031;-83
2021/03/06 15:47:42;;;;;;;7.00;5.60;;;9.90;69.30;;;;;;6150385;28;20023;-85
2021/03/06 15:50:43;;;;;;;6.72;5.30;;;9.80;57.50;;;;;;6130828;28;20034;-85
2021/03/06 15:53:44;;;;;;;6.43;5.63;;;;;;;;;;6126656;28;20061;-86
2021/03/06 15:56:44;;;;;;;7.85;6.00;;;9.60;58.70;;;;;;6155178;28;20030;-81
2021/03/06 15:59:46;;;;;;;5.70;5.10;;;9.60;40.50;;;;;;6126489;28;20042;-81
2021/03/06 16:02:47;;;;;;;6.83;5.70;;;9.70;67.30;;;;;;6127564;28;20065;-83
2021/03/06 16:05:48;;;;;;;9.30;6.57;;;;;;;;;;6124054;28;20026;-83
2021/03/06 16:08:49;;;;;;;7.53;6.40;;;;;;;;;;6142453;28;20126;-85
2021/03/06 16:11:49;;;;;;;7.00;5.93;;;9.70;74.20;;;;;;6146947;28;20026;-84
2021/03/06 16:14:51;;;;;;;6.07;5.47;;;;;;;;;;6125329;28;20029;-82
2021/03/06 16:17:51;;;;;;;7.55;5.93;;;8.90;55.40;;;;;;6153503;28;20672;-86